Time;durP1;ratioP1;P1;durP2;ratioP2;P2;SDS_P1;SDS_P2;PMS_P1;PMS_P2;Temp;Humidity;BMP_temperature;BMP_pressure;BME280_temperature;BME280_humidity;BME280_pressure;Samples;Min_cycle;Max_cycle;Signal;HPM_P1;HPM_P2
2022/05/10 00:00:36;;;;;;;5.10;3.38;;;18.30;60.10;;;;;;4903730;29;20123;-73
2022/05/10 00:03:06;;;;;;;6.40;3.22;;;18.30;60.00;;;;;;4919116;29;20123;-73
2022/05/10 00:05:36;;;;;;;4.57;3.08;;;18.30;60.00;;;;;;4921827;29;20143;-73
2022/05/10 00:08:05;;;;;;;7.25;3.33;;;18.20;59.90;;;;;;4921566;29;20048;-73
2022/05/10 00:10:32;;;;;;;6.90;3.45;;;18.20;59.90;;;;;;4922230;29;20048;-73
2022/05/10 00:12:57;;;;;;;7.30;3.97;;;18.20;59.90;;;;;;4921656;29;20136;-73
2022/05/10 00:15:23;;;;;;;5.25;3.33;;;18.20;59.80;;;;;;4921517;29;20127;-73
2022/05/10 00:17:49;;;;;;;6.38;3.60;;;18.20;59.80;;;;;;4921792;29;20063;-73
2022/05/10 00:20:21;;;;;;;6.03;3.22;;;18.20;59.90;;;;;;4921511;29;20048;-73
2022/05/10 00:22:47;;;;;;;4.85;2.83;;;18.20;59.80;;;;;;4921445;29;20044;-73
2022/05/10 00:25:17;;;;;;;5.75;3.42;;;18.20;59.70;;;;;;4921259;29;20048;-73
2022/05/10 00:27:43;;;;;;;4.88;3.55;;;18.20;59.60;;;;;;4921397;29;20365;-73
2022/05/10 00:30:09;;;;;;;6.72;3.63;;;18.10;59.70;;;;;;4918390;29;20055;-73
2022/05/10 00:32:37;;;;;;;4.80;2.97;;;18.20;59.70;;;;;;4907953;29;20056;-73
2022/05/10 00:35:12;;;;;;;6.78;3.58;;;18.20;59.60;;;;;;4902426;29;20056;-73
2022/05/10 00:37:38;;;;;;;6.03;3.80;;;18.20;59.70;;;;;;4902025;29;20533;-73
2022/05/10 00:40:04;;;;;;;8.18;4.07;;;18.20;59.60;;;;;;4902456;29;20060;-73
2022/05/10 00:42:38;;;;;;;7.00;4.10;;;18.10;59.60;;;;;;4902352;29;20080;-73
2022/05/10 00:45:15;;;;;;;8.38;3.42;;;18.10;59.40;;;;;;4902023;29;20056;-74
2022/05/10 00:47:54;;;;;;;7.47;3.67;;;18.10;59.30;;;;;;4901754;29;20529;-73
2022/05/10 00:50:46;;;;;;;7.70;3.80;;;18.20;59.50;;;;;;4902328;29;20048;-73
2022/05/10 00:53:28;;;;;;;6.82;4.07;;;18.10;59.40;;;;;;4901947;29;20048;-73
2022/05/10 00:55:58;;;;;;;8.70;4.25;;;18.10;59.40;;;;;;4901814;29;20056;-73
2022/05/10 00:58:37;;;;;;;8.40;4.57;;;18.10;59.50;;;;;;4902107;29;20381;-73
2022/05/10 01:01:04;;;;;;;6.65;4.47;;;18.10;59.40;;;;;;4918641;29;20078;-73
2022/05/10 01:03:52;;;;;;;6.18;3.83;;;18.10;59.30;;;;;;4920734;29;20048;-73
2022/05/10 01:06:28;;;;;;;7.82;4.50;;;18.10;59.30;;;;;;4920940;29;20063;-73
2022/05/10 01:09:08;;;;;;;7.10;4.25;;;18.10;59.30;;;;;;4920914;29;20060;-73
2022/05/10 01:11:41;;;;;;;6.53;4.45;;;18.10;59.20;;;;;;4920610;29;20058;-73
2022/05/10 01:14:22;;;;;;;6.10;4.03;;;18.10;59.20;;;;;;4920580;29;20457;-73
2022/05/10 01:16:48;;;;;;;7.55;4.43;;;18.10;59.10;;;;;;4920580;29;20048;-73
2022/05/10 01:19:15;;;;;;;8.32;4.47;;;18.10;59.20;;;;;;4920342;29;20070;-73
2022/05/10 01:22:01;;;;;;;8.60;4.78;;;18.10;59.20;;;;;;4920791;29;20044;-73
2022/05/10 01:24:38;;;;;;;6.88;4.43;;;18.00;59.10;;;;;;4920455;29;20456;-73
2022/05/10 01:27:26;;;;;;;7.00;4.07;;;18.00;59.10;;;;;;4903151;29;20103;-74
2022/05/10 01:30:04;;;;;;;7.18;4.22;;;18.10;59.10;;;;;;4919805;29;20048;-74
2022/05/10 01:35:52;;;;;;;8.43;4.68;;;18.00;59.10;;;;;;4938956;29;20138;-73
2022/05/10 01:38:29;;;;;;;8.35;4.57;;;18.00;59.10;;;;;;4938880;29;20055;-73
2022/05/10 01:41:02;;;;;;;7.43;4.10;;;18.00;59.10;;;;;;4939519;29;20109;-73
2022/05/10 01:43:47;;;;;;;7.25;4.75;;;18.00;59.10;;;;;;4938838;29;20054;-73
2022/05/10 01:46:21;;;;;;;7.43;4.75;;;18.00;59.10;;;;;;4939127;29;20059;-73
2022/05/10 01:48:50;;;;;;;;;;;18.00;59.10;;;;;;4939584;29;20047;-73
2022/05/10 01:51:25;;;;;;;7.38;4.47;;;18.00;59.20;;;;;;4938920;29;19922;-73
2022/05/10 01:53:51;;;;;;;5.97;4.43;;;18.00;59.10;;;;;;4938582;29;20086;-74
2022/05/10 01:56:23;;;;;;;8.65;4.45;;;18.00;59.10;;;;;;4921772;29;20043;-73
2022/05/10 01:58:49;;;;;;;6.97;4.53;;;18.00;59.10;;;;;;4937224;29;20051;-73
2022/05/10 02:01:32;;;;;;;8.38;5.28;;;18.00;59.10;;;;;;4922721;29;20135;-73
2022/05/10 02:04:11;;;;;;;6.95;5.00;;;18.00;59.10;;;;;;4922145;29;20054;-73
2022/05/10 02:07:00;;;;;;;8.15;4.88;;;17.90;59.10;;;;;;4905998;29;20062;-73
2022/05/10 02:09:33;;;;;;;6.97;4.80;;;17.90;59.10;;;;;;4938720;29;20349;-73
2022/05/10 02:12:19;;;;;;;7.25;4.85;;;18.00;59.20;;;;;;4938170;29;20172;-73
2022/05/10 02:14:44;;;;;;;7.85;4.80;;;17.90;59.00;;;;;;4938530;29;20051;-73
2022/05/10 02:17:15;;;;;;;7.28;4.95;;;17.90;59.10;;;;;;4922306;29;20054;-73
2022/05/10 02:19:59;;;;;;;9.20;5.03;;;17.90;59.10;;;;;;4936561;29;20219;-73
2022/05/10 02:22:36;;;;;;;7.63;4.82;;;18.00;59.20;;;;;;4938426;29;20043;-73
2022/05/10 02:25:20;;;;;;;7.18;5.45;;;17.90;59.10;;;;;;4938289;29;20063;-73
2022/05/10 02:27:53;;;;;;;11.63;4.95;;;17.90;59.10;;;;;;4937995;29;20047;-74
2022/05/10 02:30:22;;;;;;;8.70;5.70;;;17.90;59.10;;;;;;4938234;29;20373;-73
2022/05/10 02:33:09;;;;;;;12.85;5.38;;;17.90;59.10;;;;;;4922704;29;20122;-72
2022/05/10 02:35:46;;;;;;;8.23;4.70;;;17.90;59.10;;;;;;4919281;29;20441;-72
2022/05/10 02:38:18;;;;;;;7.95;4.90;;;17.90;59.10;;;;;;4919205;29;20140;-75
2022/05/10 02:40:46;;;;;;;7.45;4.70;;;17.90;59.20;;;;;;4919098;29;20055;-75
2022/05/10 02:43:16;;;;;;;8.15;4.95;;;17.90;59.30;;;;;;4919304;29;20063;-75
2022/05/10 02:45:43;;;;;;;6.97;4.75;;;17.90;59.30;;;;;;4916017;29;20127;-74
2022/05/10 02:48:28;;;;;;;6.95;4.60;;;18.00;60.00;;;;;;4918863;29;20092;-74
2022/05/10 02:50:53;;;;;;;7.60;4.00;;;18.00;59.50;;;;;;4920197;29;20043;-74
2022/05/10 02:53:20;;;;;;;7.28;3.63;;;18.00;59.80;;;;;;4923247;29;20044;-74
2022/05/10 02:55:49;;;;;;;5.57;3.50;;;18.00;59.90;;;;;;4937885;29;20090;-75
2022/05/10 02:58:22;;;;;;;7.07;3.85;;;18.00;59.90;;;;;;4926042;29;20075;-74
2022/05/10 03:00:51;;;;;;;5.93;3.50;;;18.00;60.00;;;;;;4917622;29;20079;-74
2022/05/10 03:03:21;;;;;;;7.20;3.55;;;18.00;60.00;;;;;;4918576;29;20276;-74
2022/05/10 03:05:46;;;;;;;7.55;3.47;;;18.00;60.00;;;;;;4918511;29;20147;-74
2022/05/10 03:08:12;;;;;;;5.57;3.40;;;18.00;60.00;;;;;;4918956;29;20112;-74
2022/05/10 03:10:38;;;;;;;6.70;3.53;;;18.00;60.60;;;;;;4921510;29;20056;-74
2022/05/10 03:13:04;;;;;;;6.03;3.33;;;18.00;60.10;;;;;;4918889;29;20048;-74
2022/05/10 03:15:30;;;;;;;9.00;4.10;;;18.00;60.40;;;;;;4915447;29;20055;-74
2022/05/10 03:17:57;;;;;;;7.97;3.70;;;18.00;60.50;;;;;;4918416;29;20055;-74
2022/05/10 03:20:22;;;;;;;6.15;2.70;;;18.00;60.60;;;;;;4918514;29;20047;-78
2022/05/10 03:22:48;;;;;;;6.57;3.55;;;18.00;60.80;;;;;;4920890;29;20084;-75
2022/05/10 03:25:15;;;;;;;8.18;3.40;;;18.00;61.10;;;;;;4922255;29;20044;-75
2022/05/10 03:27:41;;;;;;;7.60;3.65;;;18.00;61.20;;;;;;4919109;29;20122;-75
2022/05/10 03:30:07;;;;;;;6.63;3.40;;;18.00;61.40;;;;;;4921975;29;20521;-76
2022/05/10 03:32:33;;;;;;;7.50;3.30;;;18.00;61.50;;;;;;4904178;29;20064;-76
2022/05/10 03:34:59;;;;;;;7.13;3.15;;;18.00;61.60;;;;;;4903202;29;20048;-75
2022/05/10 03:37:27;;;;;;;5.55;2.97;;;18.00;61.70;;;;;;4903391;29;20055;-74
2022/05/10 03:39:53;;;;;;;6.65;3.20;;;18.00;61.80;;;;;;4892159;29;20064;-74
2022/05/10 03:42:20;;;;;;;8.50;3.60;;;18.00;62.00;;;;;;4902826;29;20048;-74
2022/05/10 03:44:53;;;;;;;6.93;3.35;;;18.00;62.80;;;;;;4902994;29;20048;-74
2022/05/10 03:47:21;;;;;;;4.85;3.00;;;18.00;62.20;;;;;;4903199;29;20334;-74
2022/05/10 03:49:47;;;;;;;4.35;2.80;;;18.00;62.30;;;;;;4903121;29;20458;-74
2022/05/10 03:52:14;;;;;;;7.05;3.00;;;18.00;62.30;;;;;;4903244;29;20048;-74
2022/05/10 03:54:40;;;;;;;7.40;3.17;;;18.00;62.40;;;;;;4903499;29;20052;-74
2022/05/10 03:57:06;;;;;;;8.75;3.33;;;18.00;62.50;;;;;;4902887;29;20048;-74
2022/05/10 03:59:32;;;;;;;4.30;2.60;;;18.00;62.50;;;;;;4902845;29;20351;-74
2022/05/10 04:01:58;;;;;;;4.57;2.78;;;18.00;62.60;;;;;;4903149;29;20054;-74
2022/05/10 04:04:24;;;;;;;5.22;3.15;;;18.00;63.20;;;;;;4902857;29;20059;-74
2022/05/10 04:06:50;;;;;;;4.82;2.70;;;18.00;62.50;;;;;;4902691;29;20060;-74
2022/05/10 04:09:16;;;;;;;6.38;3.00;;;18.00;62.60;;;;;;4903002;29;20084;-74
2022/05/10 04:11:44;;;;;;;5.03;2.63;;;17.90;62.50;;;;;;4902930;29;20044;-74
2022/05/10 04:14:11;;;;;;;3.30;2.42;;;17.90;62.50;;;;;;4902211;29;20053;-75
2022/05/10 04:16:37;;;;;;;6.28;2.58;;;18.00;62.60;;;;;;4902054;29;20083;-75
2022/05/10 04:19:03;;;;;;;3.13;2.30;;;18.00;62.60;;;;;;4902024;29;20397;-76
2022/05/10 04:21:29;;;;;;;6.18;2.83;;;18.00;62.60;;;;;;4902781;29;20045;-77
2022/05/10 04:23:55;;;;;;;9.48;3.15;;;17.90;62.40;;;;;;4885891;29;20481;-74
2022/05/10 04:26:21;;;;;;;6.82;3.53;;;18.00;62.50;;;;;;4902396;29;20045;-74
2022/05/10 04:28:46;;;;;;;10.50;2.75;;;17.90;62.60;;;;;;4896829;29;20067;-74
2022/05/10 04:31:12;;;;;;;5.68;2.58;;;18.00;62.50;;;;;;4907883;29;20060;-75
2022/05/10 04:33:39;;;;;;;8.73;3.35;;;18.00;62.50;;;;;;4939549;29;20043;-75
2022/05/10 04:36:05;;;;;;;7.20;3.50;;;18.00;62.50;;;;;;4920727;29;20044;-75
2022/05/10 04:38:32;;;;;;;4.60;3.17;;;18.00;62.40;;;;;;4921239;29;20465;-77
2022/05/10 04:43:43;;;;;;;6.45;4.03;;;18.00;62.40;;;;;;4914028;29;20060;-74
2022/05/10 04:46:09;;;;;;;7.65;4.68;;;18.00;62.40;;;;;;4918399;29;20545;-74
2022/05/10 04:48:36;;;;;;;6.68;4.05;;;18.00;62.30;;;;;;4939685;29;20475;-75
2022/05/10 04:51:03;;;;;;;7.68;4.55;;;18.00;62.20;;;;;;4930634;29;20048;-75
2022/05/10 04:53:29;;;;;;;8.52;5.28;;;18.00;62.00;;;;;;4920586;29;20462;-74
2022/05/10 04:55:55;;;;;;;8.15;4.35;;;18.10;61.90;;;;;;4920409;29;20083;-75
2022/05/10 04:58:21;;;;;;;12.75;5.07;;;18.10;61.80;;;;;;4920864;29;20092;-71
2022/05/10 05:00:46;;;;;;;10.05;5.55;;;18.10;62.40;;;;;;4921815;29;20474;-72
2022/05/10 05:03:12;;;;;;;9.48;5.82;;;18.10;61.90;;;;;;4920380;29;20044;-73
2022/05/10 05:05:38;;;;;;;12.93;5.90;;;18.10;62.30;;;;;;4917685;29;20071;-75
2022/05/10 05:08:04;;;;;;;11.75;5.03;;;18.00;63.00;;;;;;4917378;29;20059;-73
2022/05/10 05:10:29;;;;;;;7.13;4.93;;;18.00;63.10;;;;;;4920469;29;20057;-73
2022/05/10 05:12:55;;;;;;;10.40;5.38;;;18.00;62.60;;;;;;4920825;29;20059;-73
2022/05/10 05:15:21;;;;;;;9.50;4.88;;;18.00;62.40;;;;;;4920740;29;20131;-71
2022/05/10 05:17:46;;;;;;;6.85;4.30;;;18.00;62.40;;;;;;4921085;29;20044;-72
2022/05/10 05:20:12;;;;;;;14.43;5.20;;;18.00;62.60;;;;;;4920417;29;20442;-70
2022/05/10 05:22:38;;;;;;;8.88;4.10;;;18.00;62.40;;;;;;4920021;29;20040;-72
2022/05/10 05:25:06;;;;;;;12.65;4.82;;;18.00;62.10;;;;;;4920337;29;20127;-74
2022/05/10 05:27:32;;;;;;;19.40;5.07;;;18.00;61.60;;;;;;4903821;29;20048;-76
2022/05/10 05:29:57;;;;;;;12.75;4.95;;;18.00;61.80;;;;;;4921186;29;20040;-75
2022/05/10 05:32:28;;;;;;;14.25;5.28;;;18.00;61.90;;;;;;4919860;29;20105;-74
2022/05/10 05:34:56;;;;;;;13.43;4.75;;;18.10;62.00;;;;;;4900551;29;20064;-73
2022/05/10 05:37:33;;;;;;;14.65;4.78;;;18.10;62.70;;;;;;4919962;29;20056;-73
2022/05/10 05:40:06;;;;;;;18.05;3.83;;;18.10;63.10;;;;;;4920057;29;20048;-70
2022/05/10 05:42:32;;;;;;;14.43;3.75;;;18.20;63.50;;;;;;4920138;29;20044;-72
2022/05/10 05:44:58;;;;;;;12.27;3.97;;;18.30;64.30;;;;;;4918217;29;20127;-72
2022/05/10 05:47:25;;;;;;;18.00;4.90;;;18.30;63.80;;;;;;4920061;29;20055;-73
2022/05/10 05:49:51;;;;;;;17.55;4.40;;;18.40;64.20;;;;;;4920115;29;20054;-72
2022/05/10 05:52:20;;;;;;;17.33;4.30;;;18.40;64.60;;;;;;4919690;29;20376;-73
2022/05/10 05:54:46;;;;;;;21.63;4.40;;;18.40;64.90;;;;;;4920229;29;20052;-73
2022/05/10 05:57:12;;;;;;;19.88;4.05;;;18.50;65.00;;;;;;4919379;29;20075;-72
2022/05/10 05:59:38;;;;;;;25.02;6.07;;;18.40;65.20;;;;;;4919465;29;20137;-72
2022/05/10 06:02:14;;;;;;;17.88;4.38;;;18.50;65.50;;;;;;4919299;29;20060;-70
2022/05/10 06:04:40;;;;;;;15.40;4.53;;;18.50;64.20;;;;;;4919256;29;20062;-74
2022/05/10 06:07:06;;;;;;;20.10;4.25;;;18.40;64.20;;;;;;4919277;29;20052;-73
2022/05/10 06:09:32;;;;;;;20.88;4.68;;;18.50;64.60;;;;;;4919448;29;20123;-75
2022/05/10 06:11:58;;;;;;;23.70;5.10;;;18.50;64.60;;;;;;4919528;29;20052;-76
2022/05/10 06:14:23;;;;;;;24.13;5.20;;;18.50;64.80;;;;;;4920140;29;20063;-74
2022/05/10 06:16:49;;;;;;;28.75;6.00;;;18.50;64.70;;;;;;4919655;29;20402;-74
2022/05/10 06:19:15;;;;;;;22.60;5.68;;;18.40;64.40;;;;;;4918100;29;20052;-74
2022/05/10 06:21:41;;;;;;;18.02;5.75;;;18.50;64.00;;;;;;4918944;29;20055;-74
2022/05/10 06:24:10;;;;;;;12.32;4.90;;;18.40;63.40;;;;;;4919006;29;20048;-73
2022/05/10 06:26:36;;;;;;;14.30;5.88;;;18.40;63.00;;;;;;4919865;29;20123;-73
2022/05/10 06:29:02;;;;;;;10.48;5.85;;;18.40;62.80;;;;;;4919556;29;20063;-73
2022/05/10 06:31:28;;;;;;;10.88;5.43;;;18.50;62.60;;;;;;4924578;29;20068;-74
2022/05/10 06:33:53;;;;;;;11.27;5.18;;;18.50;62.20;;;;;;4919006;29;20095;-73
2022/05/10 06:36:19;;;;;;;8.60;4.32;;;18.40;62.10;;;;;;4915630;29;20342;-74
2022/05/10 06:38:45;;;;;;;10.80;5.13;;;18.50;62.20;;;;;;4919108;29;20397;-74
2022/05/10 06:41:11;;;;;;;8.98;5.03;;;18.50;62.50;;;;;;4901764;29;20115;-81
2022/05/10 06:43:38;;;;;;;11.00;5.15;;;18.50;62.60;;;;;;4901968;29;20044;-75
2022/05/10 06:46:12;;;;;;;10.40;5.40;;;18.50;62.40;;;;;;4918874;29;20485;-74
2022/05/10 06:48:39;;;;;;;9.73;4.50;;;18.50;61.40;;;;;;4902528;29;20052;-73
2022/05/10 06:51:09;;;;;;;12.02;4.35;;;18.50;62.20;;;;;;4918856;29;20048;-73
2022/05/10 06:53:36;;;;;;;9.77;4.50;;;18.50;61.90;;;;;;4923023;29;20110;-73
2022/05/10 06:56:03;;;;;;;15.73;4.32;;;18.50;61.90;;;;;;4937539;29;20480;-73
2022/05/10 06:58:29;;;;;;;8.90;4.28;;;18.50;62.50;;;;;;4938502;29;20059;-73
2022/05/10 07:00:54;;;;;;;14.27;5.47;;;18.50;63.20;;;;;;4937693;29;20052;-72
2022/05/10 07:03:33;;;;;;;20.90;5.22;;;18.50;64.70;;;;;;4938300;29;20159;-73
2022/05/10 07:06:01;;;;;;;14.80;4.25;;;18.50;65.00;;;;;;4937293;29;20083;-73
2022/05/10 07:08:28;;;;;;;12.02;4.07;;;18.50;64.60;;;;;;4937712;29;20067;-73
2022/05/10 07:10:54;;;;;;;14.30;3.58;;;18.50;64.60;;;;;;4937427;29;20051;-73
2022/05/10 07:13:23;;;;;;;14.65;4.05;;;18.50;64.40;;;;;;4921111;29;20047;-73
2022/05/10 07:15:49;;;;;;;16.35;4.45;;;18.50;64.20;;;;;;4937425;29;20043;-73
2022/05/10 07:18:15;;;;;;;10.80;3.70;;;18.50;64.00;;;;;;4937468;29;20054;-73
2022/05/10 07:20:42;;;;;;;7.70;3.33;;;18.60;63.90;;;;;;4937776;29;20529;-73
2022/05/10 07:23:07;;;;;;;8.32;3.10;;;18.50;63.80;;;;;;4937442;29;20381;-73
2022/05/10 07:25:33;;;;;;;11.10;3.38;;;18.50;63.70;;;;;;4918821;29;20044;-74
2022/05/10 07:28:00;;;;;;;8.75;3.60;;;18.50;63.60;;;;;;4915569;29;20070;-73
2022/05/10 07:30:27;;;;;;;8.50;3.22;;;18.50;63.60;;;;;;4918885;29;20393;-73
2022/05/10 07:32:54;;;;;;;7.10;2.85;;;18.50;63.50;;;;;;4918770;29;20476;-73
2022/05/10 07:38:07;;;;;;;8.63;3.33;;;18.50;63.70;;;;;;4918666;29;20064;-73
2022/05/10 07:40:33;;;;;;;8.45;2.75;;;18.50;63.70;;;;;;4918618;29;20342;-73
2022/05/10 07:42:58;;;;;;;10.10;3.50;;;18.50;63.80;;;;;;4918550;29;20111;-73
2022/05/10 07:45:24;;;;;;;7.15;2.88;;;18.50;63.80;;;;;;4918351;29;20119;-73
2022/05/10 07:47:50;;;;;;;6.05;2.63;;;18.50;63.60;;;;;;4918223;29;20088;-73
2022/05/10 07:50:16;;;;;;;4.68;2.97;;;18.40;63.60;;;;;;4918791;29;20043;-73
2022/05/10 07:52:42;;;;;;;7.07;3.08;;;18.40;63.60;;;;;;4918525;29;20052;-73
2022/05/10 07:55:09;;;;;;;5.93;2.92;;;18.50;63.60;;;;;;4918012;29;20048;-73
2022/05/10 07:57:35;;;;;;;3.95;2.72;;;18.40;63.60;;;;;;4917729;29;20055;-73
2022/05/10 08:00:01;;;;;;;4.93;2.60;;;18.40;63.60;;;;;;4918327;29;20052;-73
2022/05/10 08:02:26;;;;;;;7.88;2.92;;;18.40;63.70;;;;;;4918078;29;20130;-73
2022/05/10 08:04:52;;;;;;;5.63;2.42;;;18.40;63.80;;;;;;4918467;29;20108;-73
2022/05/10 08:07:18;;;;;;;6.50;2.40;;;18.40;63.80;;;;;;4918276;29;20143;-74
2022/05/10 08:09:43;;;;;;;6.80;3.30;;;18.30;63.80;;;;;;4920680;29;20067;-73
2022/05/10 08:12:09;;;;;;;6.65;2.50;;;18.30;63.80;;;;;;4921775;29;20461;-73
2022/05/10 08:14:35;;;;;;;8.90;2.95;;;18.30;63.90;;;;;;4921454;29;20044;-73
2022/05/10 08:17:00;;;;;;;6.00;2.97;;;18.30;63.90;;;;;;4921519;29;20052;-73
2022/05/10 08:19:26;;;;;;;4.78;2.35;;;18.30;64.00;;;;;;4918711;29;20503;-73
2022/05/10 08:21:55;;;;;;;4.43;2.58;;;18.30;64.00;;;;;;4921438;29;20052;-73
2022/05/10 08:24:22;;;;;;;6.63;2.78;;;18.30;64.00;;;;;;4921930;29;20373;-73
2022/05/10 08:26:48;;;;;;;7.38;3.00;;;18.30;63.90;;;;;;4920934;29;20056;-73
2022/05/10 08:29:13;;;;;;;7.90;3.00;;;18.30;63.90;;;;;;4921304;29;20107;-73
2022/05/10 08:31:40;;;;;;;5.97;2.65;;;18.30;64.00;;;;;;4921268;29;20075;-73
2022/05/10 08:34:06;;;;;;;6.35;3.45;;;18.30;64.00;;;;;;4921234;29;20079;-73
2022/05/10 08:36:32;;;;;;;10.25;2.92;;;18.30;64.10;;;;;;4920573;29;20048;-73
2022/05/10 08:38:58;;;;;;;10.38;3.40;;;18.40;64.20;;;;;;4920941;29;20127;-73
2022/05/10 08:41:48;;;;;;;7.93;2.50;;;18.30;64.20;;;;;;4920822;29;20192;-73
2022/05/10 08:44:17;;;;;;;5.75;2.20;;;18.30;64.30;;;;;;4921175;29;20048;-73
2022/05/10 08:46:56;;;;;;;6.97;2.70;;;18.40;64.40;;;;;;4920893;29;20123;-73
2022/05/10 08:49:41;;;;;;;7.40;3.28;;;18.30;64.30;;;;;;4921359;29;20051;-73
2022/05/10 08:52:07;;;;;;;8.10;2.72;;;18.30;64.30;;;;;;4920042;29;20128;-73
2022/05/10 08:54:37;;;;;;;8.55;2.80;;;18.30;64.30;;;;;;4921219;29;20119;-73
2022/05/10 08:57:05;;;;;;;5.72;2.70;;;18.30;64.30;;;;;;4921559;29;20179;-73
2022/05/10 08:59:51;;;;;;;6.82;2.95;;;18.30;64.30;;;;;;4920970;29;20060;-73
2022/05/10 09:02:24;;;;;;;4.55;2.30;;;18.30;64.30;;;;;;4919378;29;20075;-73
2022/05/10 09:05:18;;;;;;;7.68;2.92;;;18.30;64.00;;;;;;4920470;29;20044;-73
2022/05/10 09:08:05;;;;;;;8.63;3.30;;;18.40;63.60;;;;;;4920843;29;20144;-73
2022/05/10 09:10:44;;;;;;;7.75;3.65;;;18.40;63.40;;;;;;4920420;29;20052;-72
2022/05/10 09:13:15;;;;;;;8.13;3.58;;;18.40;63.00;;;;;;4919788;29;20040;-72
2022/05/10 09:16:03;;;;;;;9.20;4.03;;;18.50;62.90;;;;;;4920562;29;20098;-72
2022/05/10 09:18:30;;;;;;;8.07;4.47;;;18.50;62.60;;;;;;4919847;29;20091;-73
2022/05/10 09:21:13;;;;;;;10.15;5.18;;;18.60;62.10;;;;;;4920452;29;20052;-72
2022/05/10 09:23:54;;;;;;;13.52;6.00;;;18.60;62.00;;;;;;4920233;29;20048;-68
2022/05/10 09:26:25;;;;;;;12.45;5.00;;;18.60;63.20;;;;;;4920398;29;20453;-70
2022/05/10 09:29:08;;;;;;;7.93;5.10;;;18.60;63.80;;;;;;4919812;29;20104;-71
2022/05/10 09:37:33;;;;;;;12.05;4.93;;;18.70;66.40;;;;;;4901063;29;20442;-70
2022/05/10 09:40:11;;;;;;;13.45;4.95;;;18.70;66.20;;;;;;4900680;29;20362;-74
2022/05/10 09:42:43;;;;;;;12.93;5.03;;;18.70;67.10;;;;;;4884803;29;20056;-78
2022/05/10 09:45:14;;;;;;;12.88;5.40;;;18.80;66.40;;;;;;4900844;29;20052;-72
2022/05/10 09:47:54;;;;;;;8.25;5.05;;;18.80;66.20;;;;;;4911867;29;20056;-73
2022/05/10 09:50:25;;;;;;;8.63;5.28;;;18.80;65.10;;;;;;4919616;29;20406;-73
2022/05/10 09:53:06;;;;;;;12.27;5.93;;;18.90;67.20;;;;;;4919897;29;20385;-74
2022/05/10 09:55:33;;;;;;;14.27;5.45;;;18.90;65.70;;;;;;4902349;29;20116;-72
2022/05/10 09:58:14;;;;;;;10.63;5.00;;;18.90;68.10;;;;;;4900658;29;20096;-73
2022/05/10 10:00:44;;;;;;;14.55;4.45;;;18.90;67.10;;;;;;4900757;29;20078;-72
2022/05/10 10:03:26;;;;;;;12.45;6.35;;;18.90;68.50;;;;;;4901640;29;20116;-72
2022/05/10 10:05:54;;;;;;;9.90;5.63;;;19.00;67.80;;;;;;4900589;29;20120;-71
2022/05/10 10:08:37;;;;;;;8.50;5.47;;;19.00;67.80;;;;;;4900499;29;20469;-72
2022/05/10 10:11:29;;;;;;;10.23;5.85;;;19.00;67.70;;;;;;4900410;29;20147;-70
2022/05/10 10:14:13;;;;;;;11.02;6.10;;;19.00;67.30;;;;;;4900747;29;20067;-69
2022/05/10 10:16:41;;;;;;;;;;;19.00;67.20;;;;;;4901023;29;20442;-70
2022/05/10 10:19:22;;;;;;;14.10;5.93;;;18.90;67.90;;;;;;4900032;29;19924;-70
2022/05/10 10:21:48;;;;;;;9.02;5.55;;;18.90;67.90;;;;;;4899917;29;20084;-70
2022/05/10 10:24:25;;;;;;;8.55;5.70;;;18.90;68.50;;;;;;4900337;29;20083;-74
2022/05/10 10:26:55;;;;;;;10.13;6.95;;;19.00;69.20;;;;;;4900095;29;20063;-70
2022/05/10 10:29:41;;;;;;;13.57;6.03;;;19.00;69.00;;;;;;4900164;29;20052;-69
2022/05/10 10:32:22;;;;;;;11.98;6.05;;;19.00;69.40;;;;;;4908469;29;20060;-71
2022/05/10 10:34:54;;;;;;;8.40;5.93;;;19.00;70.60;;;;;;4919050;29;20135;-70
2022/05/10 10:37:23;;;;;;;9.07;4.90;;;19.00;70.10;;;;;;4918923;29;20056;-70
2022/05/10 10:40:10;;;;;;;12.05;5.90;;;19.00;70.10;;;;;;4918782;29;20059;-71
2022/05/10 10:42:39;;;;;;;10.27;4.95;;;19.00;69.20;;;;;;4899307;29;20064;-71
2022/05/10 10:45:12;;;;;;;9.90;4.75;;;19.00;69.20;;;;;;4918380;29;20499;-71
2022/05/10 10:47:54;;;;;;;8.70;4.53;;;19.00;69.60;;;;;;4918566;29;20143;-71
2022/05/10 10:50:26;;;;;;;10.00;4.88;;;19.00;69.90;;;;;;4918619;29;20382;-71
2022/05/10 10:52:54;;;;;;;5.78;4.30;;;19.00;69.20;;;;;;4918906;29;20052;-70
2022/05/10 10:55:22;;;;;;;10.75;4.40;;;19.00;68.90;;;;;;4919197;29;20052;-71
2022/05/10 10:58:16;;;;;;;8.23;3.80;;;19.00;69.30;;;;;;4915713;29;20052;-70
2022/05/10 11:01:16;;;;;;;6.43;3.30;;;19.00;69.40;;;;;;4918954;29;20044;-71
2022/05/10 11:04:01;;;;;;;5.75;3.35;;;19.00;69.40;;;;;;4882312;29;20049;-71
2022/05/10 11:06:29;;;;;;;5.60;3.55;;;19.00;69.80;;;;;;4900057;29;20045;-70
2022/05/10 11:09:38;;;;;;;7.82;3.22;;;19.00;68.80;;;;;;4901706;29;20453;-71
2022/05/10 11:12:22;;;;;;;7.80;3.80;;;19.00;67.80;;;;;;4916553;29;20228;-72
2022/05/10 11:14:47;;;;;;;5.32;3.17;;;19.00;67.70;;;;;;4916860;29;20055;-71
2022/05/10 11:17:36;;;;;;;4.93;3.10;;;19.00;68.20;;;;;;4905619;29;20056;-71
2022/05/10 11:20:15;;;;;;;11.98;3.33;;;19.00;67.90;;;;;;4907735;29;20056;-71
2022/05/10 11:22:51;;;;;;;8.02;3.20;;;19.00;68.70;;;;;;4899394;29;20048;-71
2022/05/10 11:25:47;;;;;;;9.95;3.38;;;19.00;68.50;;;;;;4899800;29;20355;-71
2022/05/10 11:28:25;;;;;;;7.50;3.00;;;19.00;68.40;;;;;;4899203;29;20085;-71
2022/05/10 11:31:10;;;;;;;10.65;3.13;;;19.10;68.70;;;;;;4899653;29;20049;-70
2022/05/10 11:33:44;;;;;;;7.35;3.50;;;19.00;68.70;;;;;;4903970;29;20048;-71
2022/05/10 11:36:32;;;;;;;10.68;3.90;;;19.00;69.40;;;;;;4916919;29;20473;-70
2022/05/10 11:39:29;;;;;;;7.00;3.30;;;19.00;71.30;;;;;;4917163;29;20052;-68
2022/05/10 11:42:18;;;;;;;9.65;3.85;;;19.10;71.40;;;;;;4899457;29;20087;-69
2022/05/10 11:45:10;;;;;;;8.18;3.28;;;19.10;71.30;;;;;;4902640;29;20053;-73
2022/05/10 11:48:06;;;;;;;8.05;3.97;;;19.10;70.90;;;;;;4903300;29;20054;-74
2022/05/10 11:51:38;;;;;;;10.05;3.05;;;19.10;71.50;;;;;;4903287;29;20051;-76
2022/05/10 11:53:54;;;;;;;8.60;3.38;;;19.10;70.30;;;;;;4921721;29;20131;-69
2022/05/10 11:56:20;;;;;;;6.65;2.70;;;19.10;69.70;;;;;;4922166;29;20055;-73
2022/05/10 11:58:46;;;;;;;10.65;3.45;;;19.10;69.50;;;;;;4919117;29;20452;-72
2022/05/10 12:01:34;;;;;;;14.80;3.63;;;19.20;69.70;;;;;;4904816;29;20104;-72
2022/05/10 12:03:59;;;;;;;6.40;2.83;;;19.20;69.50;;;;;;4921524;29;20040;-72
2022/05/10 12:06:25;;;;;;;8.30;2.58;;;19.20;69.20;;;;;;4904462;29;20139;-72
2022/05/10 12:08:59;;;;;;;5.78;2.55;;;19.20;68.80;;;;;;4921620;29;20044;-71
2022/05/10 12:11:30;;;;;;;7.70;2.45;;;19.20;68.70;;;;;;4919035;29;20052;-71
2022/05/10 12:22:47;;;;;;;5.82;2.30;;;19.10;67.80;;;;;;4920719;29;20048;-71
2022/05/10 12:25:50;;;;;;;3.75;2.10;;;19.10;67.30;;;;;;4920728;29;20059;-71
2022/05/10 12:28:47;;;;;;;5.10;1.95;;;19.10;67.30;;;;;;4921356;29;20052;-71
2022/05/10 12:31:45;;;;;;;3.83;2.10;;;19.10;67.00;;;;;;4919417;29;20056;-72
2022/05/10 12:34:31;;;;;;;5.82;2.20;;;19.10;67.00;;;;;;4902323;29;20060;-72
2022/05/10 12:37:28;;;;;;;5.35;2.15;;;19.10;67.10;;;;;;4926762;29;20079;-71
2022/05/10 12:39:56;;;;;;;3.38;2.03;;;19.10;66.70;;;;;;4921327;29;20477;-71
2022/05/10 12:42:40;;;;;;;4.20;2.20;;;19.10;66.80;;;;;;4904896;29;20070;-71
2022/05/10 12:45:37;;;;;;;4.72;2.00;;;19.10;66.70;;;;;;4920821;29;20048;-72
2022/05/10 12:48:25;;;;;;;6.03;2.13;;;19.10;66.40;;;;;;4920968;29;20052;-71
2022/05/10 12:51:35;;;;;;;6.88;2.83;;;19.10;66.30;;;;;;4904485;29;20426;-71
2022/05/10 12:54:21;;;;;;;4.93;2.30;;;19.10;66.00;;;;;;4919581;29;20048;-73
2022/05/10 12:57:21;;;;;;;4.88;2.38;;;19.10;66.10;;;;;;4937098;29;20350;-72
2022/05/10 13:00:20;;;;;;;3.83;2.03;;;19.10;65.90;;;;;;4928330;29;20383;-72
2022/05/10 13:03:05;;;;;;;5.03;2.30;;;19.00;65.80;;;;;;4908227;29;20056;-72
2022/05/10 13:06:01;;;;;;;5.18;1.80;;;19.00;65.60;;;;;;4919960;29;20063;-73
2022/05/10 13:08:37;;;;;;;6.18;1.92;;;19.00;65.30;;;;;;4924202;29;20055;-72
2022/05/10 13:11:05;;;;;;;4.63;2.35;;;19.00;65.30;;;;;;4938034;29;20055;-72
2022/05/10 13:13:33;;;;;;;4.20;2.00;;;19.00;65.20;;;;;;4938248;29;20051;-71
2022/05/10 13:16:02;;;;;;;5.20;1.90;;;19.00;65.10;;;;;;4938992;29;20411;-72
2022/05/10 13:18:29;;;;;;;4.93;1.92;;;19.00;64.90;;;;;;4921301;29;20092;-72
2022/05/10 13:20:57;;;;;;;4.20;1.90;;;19.00;64.80;;;;;;4920275;29;20044;-72
2022/05/10 13:23:29;;;;;;;5.03;1.95;;;19.00;64.70;;;;;;4919665;29;20067;-70
2022/05/10 13:26:10;;;;;;;6.55;2.35;;;19.00;64.40;;;;;;4919848;29;20143;-73
2022/05/10 13:28:53;;;;;;;8.85;2.70;;;19.00;64.20;;;;;;4920222;29;20118;-72
2022/05/10 13:31:23;;;;;;;11.13;2.72;;;19.10;64.30;;;;;;4919695;29;20060;-73
2022/05/10 13:33:49;;;;;;;10.07;3.05;;;19.10;64.40;;;;;;4919450;29;20127;-77
2022/05/10 13:36:20;;;;;;;10.85;3.05;;;19.10;63.10;;;;;;4919683;29;20051;-78